createdAt,value
2022-12-14T00:01:35.489Z,-1.40
2022-12-14T00:04:02.245Z,-1.30
2022-12-14T00:06:31.459Z,-1.30
2022-12-14T00:09:01.139Z,-1.30
2022-12-14T00:11:28.703Z,-1.30
2022-12-14T00:13:58.124Z,-1.30
2022-12-14T00:16:26.903Z,-1.30
2022-12-14T00:18:55.616Z,-1.30
2022-12-14T00:21:22.765Z,-1.20
2022-12-14T00:23:50.803Z,-1.30
2022-12-14T00:26:29.300Z,-1.10
2022-12-14T00:28:56.744Z,-1.30
2022-12-14T00:31:24.742Z,-1.30
2022-12-14T00:33:51.974Z,-1.30
2022-12-14T00:36:20.256Z,-1.40
2022-12-14T00:38:47.182Z,-1.30
2022-12-14T00:41:14.035Z,-1.30
2022-12-14T00:43:40.893Z,-1.30
2022-12-14T00:46:08.292Z,-1.20
2022-12-14T00:48:35.285Z,-1.20
2022-12-14T00:51:02.439Z,-1.30
2022-12-14T00:53:30.085Z,-1.20
2022-12-14T00:55:56.999Z,-1.20
2022-12-14T00:58:25.452Z,-1.20
2022-12-14T01:01:00.990Z,-1.20
2022-12-14T01:03:28.535Z,-1.00
2022-12-14T01:05:55.619Z,-1.10
2022-12-14T01:08:23.172Z,-1.00
2022-12-14T01:10:50.241Z,-1.00
2022-12-14T01:13:17.283Z,-1.00
2022-12-14T01:15:44.086Z,-1.00
2022-12-14T01:18:11.031Z,-1.10
2022-12-14T01:20:37.823Z,-1.00
2022-12-14T01:23:04.584Z,-1.00
2022-12-14T01:25:31.423Z,-1.00
2022-12-14T01:27:58.187Z,-1.00
2022-12-14T01:30:25.079Z,-1.00
2022-12-14T01:32:51.908Z,-1.00
2022-12-14T01:35:18.696Z,-1.00
2022-12-14T01:37:45.511Z,-1.00
2022-12-14T01:40:16.388Z,-1.00
2022-12-14T01:42:43.163Z,-1.10
2022-12-14T01:45:22.129Z,-1.00
2022-12-14T01:47:55.429Z,-1.10
2022-12-14T01:50:37.955Z,-1.30
2022-12-14T01:53:21.031Z,-1.30
2022-12-14T01:55:52.128Z,-1.40
2022-12-14T01:58:24.887Z,-1.30
2022-12-14T02:00:58.406Z,-1.40
2022-12-14T02:03:38.188Z,-1.50
2022-12-14T02:06:12.807Z,-1.40
2022-12-14T02:08:43.319Z,-1.40
2022-12-14T02:11:10.357Z,-1.40
2022-12-14T02:13:41.625Z,-1.30
2022-12-14T02:16:08.947Z,-1.50
2022-12-14T02:18:35.948Z,-1.40
2022-12-14T02:21:48.233Z,-1.40
2022-12-14T02:24:30.389Z,-1.40
2022-12-14T02:27:16.362Z,-1.40
2022-12-14T02:30:15.141Z,-1.30
2022-12-14T02:33:00.494Z,-1.40
2022-12-14T02:35:27.215Z,-1.30
2022-12-14T02:38:18.584Z,-1.40
2022-12-14T02:40:56.956Z,-1.40
2022-12-14T02:43:26.918Z,-1.40
2022-12-14T02:46:20.781Z,-1.40
2022-12-14T02:49:04.146Z,-1.40
2022-12-14T02:51:37.447Z,-1.50
2022-12-14T02:54:13.456Z,-1.50
2022-12-14T02:56:43.859Z,-1.40
2022-12-14T02:59:11.855Z,-1.50
2022-12-14T03:01:39.986Z,-1.50
2022-12-14T03:04:07.362Z,-1.40
2022-12-14T03:06:34.217Z,-1.50
2022-12-14T03:09:14.700Z,-1.50
2022-12-14T03:11:56.319Z,-1.50
2022-12-14T03:14:32.265Z,-1.60
2022-12-14T03:17:10.340Z,-1.70
2022-12-14T03:19:54.111Z,-1.50
2022-12-14T03:22:29.831Z,-1.50
2022-12-14T03:25:03.089Z,-1.70
2022-12-14T03:27:34.032Z,-1.80
2022-12-14T03:30:05.741Z,-1.90
2022-12-14T03:32:35.637Z,-1.80
2022-12-14T03:35:09.072Z,-1.80
2022-12-14T03:37:48.776Z,-1.90
2022-12-14T03:40:22.806Z,-1.80
2022-12-14T03:43:17.054Z,-1.90
2022-12-14T03:45:58.169Z,-2.00
2022-12-14T03:48:31.521Z,-2.10
2022-12-14T03:51:18.443Z,-2.10
2022-12-14T03:54:07.626Z,-2.10
2022-12-14T03:56:37.403Z,-2.20
2022-12-14T03:59:22.446Z,-2.30
2022-12-14T04:02:16.034Z,-2.20
2022-12-14T04:05:03.149Z,-2.20
2022-12-14T04:07:55.609Z,-2.30
2022-12-14T04:10:48.503Z,-2.30
2022-12-14T04:13:40.075Z,-2.40
2022-12-14T04:16:30.301Z,-2.50
2022-12-14T04:19:00.663Z,-2.40
2022-12-14T04:22:12.131Z,-2.40
2022-12-14T04:25:20.939Z,-2.40
2022-12-14T04:27:53.136Z,-2.50
2022-12-14T04:30:20.210Z,-2.50
2022-12-14T04:33:21.885Z,-2.40
2022-12-14T04:35:50.360Z,-2.50
2022-12-14T04:38:22.391Z,-2.50
2022-12-14T04:40:53.732Z,-2.50
2022-12-14T04:43:24.809Z,-2.40
2022-12-14T04:46:06.816Z,-2.60
2022-12-14T04:48:45.400Z,-2.60
2022-12-14T04:51:25.193Z,-2.70
2022-12-14T04:53:58.481Z,-2.70
2022-12-14T04:56:46.303Z,-2.60
2022-12-14T04:59:13.581Z,-2.60
2022-12-14T05:02:12.870Z,-2.60
2022-12-14T05:04:56.595Z,-2.60
2022-12-14T05:07:28.717Z,-2.80
2022-12-14T05:09:59.043Z,-2.90
2022-12-14T05:12:40.953Z,-3.00
2022-12-14T05:15:18.620Z,-2.90
2022-12-14T05:17:45.577Z,-2.90
2022-12-14T05:20:18.654Z,-2.80
2022-12-14T05:22:45.503Z,-2.80
2022-12-14T05:25:12.278Z,-2.90
2022-12-14T05:27:39.163Z,-2.80
2022-12-14T05:30:07.094Z,-2.80
2022-12-14T05:32:34.442Z,-2.80
2022-12-14T05:35:02.493Z,-2.80
2022-12-14T05:37:29.448Z,-2.90
2022-12-14T05:39:56.231Z,-2.90
2022-12-14T05:42:23.150Z,-2.70
2022-12-14T05:44:49.923Z,-2.60
2022-12-14T05:47:16.700Z,-2.70
2022-12-14T05:49:43.513Z,-2.70
2022-12-14T05:52:10.327Z,-2.80
2022-12-14T05:54:37.179Z,-2.70
2022-12-14T05:57:04.203Z,-2.70
2022-12-14T05:59:30.936Z,-2.60
2022-12-14T06:01:58.107Z,-2.60
2022-12-14T06:04:25.456Z,-2.50
2022-12-14T06:06:52.346Z,-2.40
2022-12-14T06:09:19.376Z,-2.30
2022-12-14T06:11:47.235Z,-2.30
2022-12-14T06:14:14.654Z,-2.30
2022-12-14T06:16:43.326Z,-2.20
2022-12-14T06:19:11.133Z,-2.20
2022-12-14T06:21:39.908Z,-1.50
2022-12-14T06:24:07.489Z,-0.80
2022-12-14T06:26:40.982Z,0.00
2022-12-14T06:29:16.035Z,0.70
2022-12-14T06:31:42.901Z,0.60
2022-12-14T06:34:10.726Z,0.40
2022-12-14T06:36:39.943Z,0.20
2022-12-14T06:39:12.515Z,0.10
2022-12-14T06:41:40.413Z,-0.10
2022-12-14T06:44:10.791Z,-0.30
2022-12-14T06:46:38.116Z,-0.50
2022-12-14T06:49:06.087Z,-0.80
2022-12-14T06:51:38.252Z,-0.70
2022-12-14T06:54:05.034Z,-0.90
2022-12-14T06:56:31.781Z,-1.10
2022-12-14T06:58:58.595Z,-1.20
2022-12-14T07:01:26.261Z,-1.30
2022-12-14T07:03:55.174Z,-1.40
2022-12-14T07:06:26.614Z,-1.60
2022-12-14T07:08:55.653Z,-1.70
2022-12-14T07:11:23.244Z,-1.80
2022-12-14T07:13:50.136Z,-2.00
2022-12-14T07:16:19.796Z,-2.10
2022-12-14T07:18:47.148Z,-2.00
2022-12-14T07:21:15.912Z,-2.10
2022-12-14T07:23:44.939Z,-2.20
2022-12-14T07:26:17.148Z,-2.20
2022-12-14T07:28:44.674Z,-2.20
2022-12-14T07:31:18.141Z,-2.20
2022-12-14T07:33:45.625Z,-2.20
2022-12-14T07:36:15.863Z,-2.30
2022-12-14T07:38:44.866Z,-2.20
2022-12-14T07:41:22.025Z,-2.30
2022-12-14T07:43:50.375Z,-2.20
2022-12-14T07:46:20.097Z,-2.10
2022-12-14T07:48:49.440Z,-2.10
2022-12-14T07:51:18.567Z,-2.00
2022-12-14T07:53:45.984Z,-2.00
2022-12-14T07:56:19.151Z,-2.00
2022-12-14T07:58:46.013Z,-2.00
2022-12-14T08:01:15.648Z,-2.00
2022-12-14T08:03:47.079Z,-1.90
2022-12-14T08:06:17.641Z,-1.90
2022-12-14T08:08:44.628Z,-1.80
2022-12-14T08:11:13.956Z,-1.80
2022-12-14T08:13:43.201Z,-1.70
2022-12-14T08:16:15.434Z,-1.70
2022-12-14T08:18:43.201Z,-1.70
2022-12-14T08:21:11.708Z,-1.70
2022-12-14T08:23:41.546Z,-1.60
2022-12-14T08:26:08.965Z,-1.50
2022-12-14T08:28:36.801Z,-1.50
2022-12-14T08:31:12.607Z,-1.40
2022-12-14T08:33:40.869Z,-1.40
2022-12-14T08:36:13.844Z,-1.40
2022-12-14T08:38:41.551Z,-1.40
2022-12-14T08:41:10.479Z,-1.40
2022-12-14T08:43:37.708Z,-1.40
2022-12-14T08:46:05.043Z,-1.20
2022-12-14T08:48:31.918Z,-1.00
2022-12-14T08:51:06.725Z,-1.00
2022-12-14T08:53:34.448Z,-0.80
2022-12-14T08:56:11.389Z,-0.80
2022-12-14T08:58:39.317Z,-0.60
2022-12-14T09:01:15.891Z,-0.60
2022-12-14T09:03:47.180Z,-0.60
2022-12-14T09:06:18.251Z,-0.60
2022-12-14T09:08:47.081Z,-0.60
2022-12-14T09:11:18.151Z,-0.50
2022-12-14T09:13:45.643Z,-0.50
2022-12-14T09:16:19.220Z,-0.50
2022-12-14T09:18:47.433Z,-0.50
2022-12-14T09:21:14.855Z,-0.60
2022-12-14T09:23:42.194Z,-0.50
2022-12-14T09:26:13.115Z,-0.40
2022-12-14T09:28:41.434Z,-0.40
2022-12-14T09:31:11.817Z,-0.30
2022-12-14T09:33:38.826Z,-0.20
2022-12-14T09:36:12.657Z,0.10
2022-12-14T09:38:43.121Z,0.20
2022-12-14T09:41:32.897Z,0.30
2022-12-14T09:44:23.827Z,0.60
2022-12-14T09:47:23.841Z,0.70
2022-12-14T09:50:02.603Z,0.90
2022-12-14T09:52:41.628Z,1.00
2022-12-14T09:55:33.142Z,0.90
2022-12-14T09:58:16.434Z,0.80
2022-12-14T10:01:24.597Z,0.90
2022-12-14T10:04:06.653Z,1.30
2022-12-14T10:07:02.322Z,1.70
2022-12-14T10:09:41.128Z,1.90
2022-12-14T10:12:34.104Z,2.00
2022-12-14T10:15:15.877Z,2.00
2022-12-14T10:17:51.589Z,1.80
2022-12-14T10:20:32.010Z,2.00
2022-12-14T10:23:02.158Z,2.20
2022-12-14T10:25:33.258Z,2.30
2022-12-14T10:28:12.681Z,2.40
2022-12-14T10:30:42.168Z,2.20
2022-12-14T10:33:30.629Z,2.30
2022-12-14T10:36:17.105Z,2.40
2022-12-14T10:38:59.883Z,2.30
2022-12-14T10:41:51.779Z,2.10
2022-12-14T10:45:04.386Z,2.00
2022-12-14T10:47:47.744Z,1.50
2022-12-14T10:50:49.620Z,0.80
2022-12-14T10:53:23.470Z,0.60
2022-12-14T10:55:58.068Z,0.30
2022-12-14T10:58:24.833Z,0.40
2022-12-14T11:00:54.807Z,0.60
2022-12-14T11:03:22.181Z,0.80
2022-12-14T11:06:12.242Z,1.00
2022-12-14T11:08:48.271Z,1.10
2022-12-14T11:11:19.657Z,1.20
2022-12-14T11:13:54.641Z,1.40
2022-12-14T11:16:28.947Z,1.40
2022-12-14T11:19:02.988Z,1.40
2022-12-14T11:21:32.150Z,1.50
2022-12-14T11:23:58.936Z,1.60
2022-12-14T11:26:41.591Z,1.60
2022-12-14T11:29:37.923Z,1.90
2022-12-14T11:32:06.162Z,2.20
2022-12-14T11:34:41.494Z,2.40
2022-12-14T11:37:21.329Z,2.20
2022-12-14T11:40:01.949Z,2.10
2022-12-14T11:42:29.295Z,1.90
2022-12-14T11:45:27.279Z,2.20
2022-12-14T11:48:10.838Z,2.00
2022-12-14T11:50:37.615Z,1.90
2022-12-14T11:53:11.871Z,1.80
2022-12-14T11:55:45.443Z,1.80
2022-12-14T11:58:34.042Z,1.80
2022-12-14T12:01:16.595Z,2.00
2022-12-14T12:03:49.373Z,2.20
2022-12-14T12:06:25.178Z,2.10
2022-12-14T12:09:00.349Z,2.00
2022-12-14T12:11:30.637Z,1.70
2022-12-14T12:14:20.755Z,1.90
2022-12-14T12:16:48.165Z,1.60
2022-12-14T12:19:41.639Z,1.60
2022-12-14T12:22:11.896Z,1.70
2022-12-14T12:25:25.038Z,1.50
2022-12-14T12:28:11.321Z,1.50
2022-12-14T12:30:43.326Z,1.40
2022-12-14T12:33:26.088Z,1.30
2022-12-14T12:36:00.059Z,1.20
2022-12-14T12:38:35.833Z,1.20
2022-12-14T12:41:33.166Z,1.10
2022-12-14T12:44:39.686Z,1.00
2022-12-14T12:47:46.113Z,0.80
2022-12-14T12:50:21.527Z,0.80
2022-12-14T12:53:06.674Z,0.70
2022-12-14T12:55:38.199Z,0.70
2022-12-14T12:58:09.982Z,0.70
2022-12-14T13:00:38.761Z,0.70
2022-12-14T13:03:27.260Z,0.70
2022-12-14T13:06:01.461Z,0.70
2022-12-14T13:08:37.363Z,0.50
2022-12-14T13:11:28.307Z,0.30
2022-12-14T13:14:03.388Z,0.40
2022-12-14T13:16:38.062Z,0.40
2022-12-14T13:19:50.589Z,0.30
2022-12-14T13:22:25.033Z,0.00
2022-12-14T13:24:58.921Z,0.00
2022-12-14T13:28:17.588Z,-0.10
2022-12-14T13:30:59.645Z,-0.40
2022-12-14T13:33:33.340Z,-0.50
2022-12-14T13:36:45.739Z,-0.70
2022-12-14T13:39:36.505Z,-0.80
2022-12-14T13:42:38.171Z,-0.90
2022-12-14T13:45:14.574Z,-1.00
2022-12-14T13:47:54.643Z,-1.00
2022-12-14T13:50:49.817Z,-1.10
2022-12-14T13:53:34.480Z,-1.20
2022-12-14T13:56:02.212Z,-1.20
2022-12-14T13:58:48.794Z,-1.30
2022-12-14T14:01:47.663Z,-1.30
2022-12-14T14:04:18.526Z,-1.30
2022-12-14T14:06:50.101Z,-1.30
2022-12-14T14:09:28.885Z,-1.30
2022-12-14T14:12:01.359Z,-1.30
2022-12-14T14:14:37.320Z,-1.40
2022-12-14T14:17:10.582Z,-1.50
2022-12-14T14:19:39.932Z,-1.50
2022-12-14T14:22:26.059Z,-1.40
2022-12-14T14:25:00.875Z,-1.40
2022-12-14T14:27:48.034Z,-1.50
2022-12-14T14:30:37.096Z,-1.50
2022-12-14T14:33:48.964Z,-1.50
2022-12-14T14:36:33.206Z,-1.40
2022-12-14T14:39:31.230Z,-1.40
2022-12-14T14:41:54.486Z,-1.40
2022-12-14T14:44:40.569Z,-1.50
2022-12-14T14:47:24.609Z,-1.60
2022-12-14T14:49:57.618Z,-1.60
2022-12-14T14:52:39.423Z,-1.60
2022-12-14T14:55:53.208Z,-1.60
2022-12-14T14:58:23.815Z,-1.60
2022-12-14T15:00:53.627Z,-1.70
2022-12-14T15:03:27.039Z,-1.70
2022-12-14T15:05:54.337Z,-1.70
2022-12-14T15:08:26.921Z,-1.70
2022-12-14T15:10:55.036Z,-1.70
2022-12-14T15:13:29.744Z,-1.60
2022-12-14T15:15:57.034Z,-1.80
2022-12-14T15:18:31.979Z,-1.70
2022-12-14T15:21:11.177Z,-1.60
2022-12-14T15:23:49.279Z,-1.70
2022-12-14T15:26:24.654Z,-1.60
2022-12-14T15:28:54.726Z,-1.60
2022-12-14T15:31:42.040Z,-1.50
2022-12-14T15:34:19.518Z,-1.80
2022-12-14T15:36:47.011Z,-1.90
2022-12-14T15:39:37.173Z,-2.00
2022-12-14T15:42:17.024Z,-2.00
2022-12-14T15:44:55.571Z,-1.90
2022-12-14T15:47:27.814Z,-2.00
2022-12-14T15:50:00.521Z,-2.10
2022-12-14T15:52:31.161Z,-1.90
2022-12-14T15:54:59.491Z,-1.80
2022-12-14T15:57:26.477Z,-1.80
2022-12-14T15:59:57.672Z,-1.80
2022-12-14T16:02:32.267Z,-1.80
2022-12-14T16:05:03.308Z,-2.00
2022-12-14T16:07:40.783Z,-2.00
2022-12-14T16:10:20.826Z,-2.00
2022-12-14T16:12:52.185Z,-2.10
2022-12-14T16:15:21.034Z,-2.20
2022-12-14T16:17:47.960Z,-2.20
2022-12-14T16:20:16.073Z,-2.30
2022-12-14T16:22:58.699Z,-2.50
2022-12-14T16:25:25.651Z,-2.60
2022-12-14T16:27:53.561Z,-2.50
2022-12-14T16:30:33.230Z,-2.50
2022-12-14T16:33:19.008Z,-2.50
2022-12-14T16:35:47.887Z,-2.50
2022-12-14T16:38:17.065Z,-2.50
2022-12-14T16:40:55.430Z,-2.60
2022-12-14T16:43:31.750Z,-2.60
2022-12-14T16:46:04.686Z,-2.50
2022-12-14T16:48:33.518Z,-2.50
2022-12-14T16:51:18.642Z,-2.60
2022-12-14T16:53:51.511Z,-2.50
2022-12-14T16:56:32.186Z,-2.40
2022-12-14T16:59:07.090Z,-2.50
2022-12-14T17:01:45.274Z,-2.50
2022-12-14T17:04:14.507Z,-2.40
2022-12-14T17:06:56.587Z,-2.50
2022-12-14T17:09:28.320Z,-2.50
2022-12-14T17:11:58.962Z,-2.50
2022-12-14T17:14:27.129Z,-2.40
2022-12-14T17:17:01.175Z,-2.40
2022-12-14T17:19:37.956Z,-2.30
2022-12-14T17:22:13.327Z,-2.40
2022-12-14T17:24:40.265Z,-2.40
2022-12-14T17:27:07.190Z,-2.30
2022-12-14T17:29:34.143Z,-2.30
2022-12-14T17:32:02.828Z,-2.50
2022-12-14T17:34:30.411Z,-2.40
2022-12-14T17:36:57.463Z,-2.40
2022-12-14T17:39:25.013Z,-2.30
2022-12-14T17:41:52.332Z,-2.30
2022-12-14T17:44:20.650Z,-2.60
2022-12-14T17:46:49.889Z,-2.60
2022-12-14T17:49:33.921Z,-2.70
2022-12-14T17:52:04.349Z,-2.60
2022-12-14T17:54:32.284Z,-2.50
2022-12-14T17:56:59.950Z,-2.70
2022-12-14T17:59:26.792Z,-2.70
2022-12-14T18:01:53.914Z,-2.70
2022-12-14T18:04:21.041Z,-2.80
2022-12-14T18:06:47.934Z,-2.80
2022-12-14T18:09:16.155Z,-2.80
2022-12-14T18:12:14.042Z,-2.90
2022-12-14T18:14:29.963Z,-3.00
2022-12-14T18:17:01.001Z,-3.00
2022-12-14T18:19:29.863Z,-2.90
2022-12-14T18:21:56.744Z,-2.80
2022-12-14T18:24:26.111Z,-2.60
2022-12-14T18:26:53.276Z,-2.60
2022-12-14T18:29:20.415Z,-2.70
2022-12-14T18:31:49.702Z,-2.70
2022-12-14T18:34:16.936Z,-2.80
2022-12-14T18:36:44.133Z,-2.90
2022-12-14T18:39:11.042Z,-3.00
2022-12-14T18:41:37.917Z,-3.00
2022-12-14T18:44:05.017Z,-3.00
2022-12-14T18:46:31.967Z,-3.00
2022-12-14T18:48:58.850Z,-3.00
2022-12-14T18:51:26.939Z,-3.00
2022-12-14T18:53:55.503Z,-3.00
2022-12-14T18:56:24.084Z,-3.10
2022-12-14T18:58:52.050Z,-3.10
2022-12-14T19:01:24.268Z,-3.10
2022-12-14T19:03:51.795Z,-3.20
2022-12-14T19:09:11.992Z,-3.10
2022-12-14T19:11:41.711Z,-3.10
2022-12-14T19:14:08.975Z,-3.20
2022-12-14T19:16:35.978Z,-3.20
2022-12-14T19:19:04.486Z,-3.20
2022-12-14T19:21:31.572Z,-3.10
2022-12-14T19:23:59.935Z,-3.00
2022-12-14T19:26:28.463Z,-3.10
2022-12-14T19:28:55.500Z,-3.10
2022-12-14T19:31:22.753Z,-3.20
2022-12-14T19:33:50.051Z,-3.20
2022-12-14T19:36:16.988Z,-3.20
2022-12-14T19:38:44.964Z,-3.10
2022-12-14T19:41:20.075Z,-3.00
2022-12-14T19:43:47.354Z,-3.00
2022-12-14T19:46:16.388Z,-3.10
2022-12-14T19:48:43.840Z,-3.10
2022-12-14T19:51:12.711Z,-3.10
2022-12-14T19:53:41.001Z,-3.00
2022-12-14T19:56:08.472Z,-3.00
2022-12-14T19:58:36.092Z,-3.00
2022-12-14T20:01:11.975Z,-2.90
2022-12-14T20:03:39.423Z,-2.90
2022-12-14T20:06:07.280Z,-2.90
2022-12-14T20:08:35.105Z,-3.00
2022-12-14T20:11:09.975Z,-3.00
2022-12-14T20:13:37.601Z,-2.90
2022-12-14T20:16:04.807Z,-2.90
2022-12-14T20:18:32.351Z,-2.80
2022-12-14T20:21:07.486Z,-2.80
2022-12-14T20:23:36.080Z,-2.80
2022-12-14T20:26:06.449Z,-2.80
2022-12-14T20:28:33.315Z,-2.70
2022-12-14T20:31:01.353Z,-2.70
2022-12-14T20:33:30.892Z,-2.60
2022-12-14T20:35:58.520Z,-2.60
2022-12-14T20:38:25.732Z,-2.60
2022-12-14T20:40:52.696Z,-2.60
2022-12-14T20:43:20.067Z,-2.60
2022-12-14T20:45:47.008Z,-2.60
2022-12-14T20:48:13.962Z,-2.60
2022-12-14T20:50:42.994Z,-2.50
2022-12-14T20:53:09.771Z,-2.60
2022-12-14T20:55:36.812Z,-2.50
2022-12-14T20:58:03.670Z,-2.60
2022-12-14T21:00:30.725Z,-2.60
2022-12-14T21:02:57.715Z,-2.60
2022-12-14T21:05:25.171Z,-2.60
2022-12-14T21:07:52.106Z,-2.60
2022-12-14T21:10:19.015Z,-2.70
2022-12-14T21:12:48.521Z,-2.60
2022-12-14T21:15:15.499Z,-2.70
2022-12-14T21:17:42.259Z,-2.70
2022-12-14T21:20:11.404Z,-2.80
2022-12-14T21:22:38.594Z,-2.90
2022-12-14T21:25:07.088Z,-2.80
2022-12-14T21:27:38.471Z,-2.80
2022-12-14T21:30:10.042Z,-2.80
2022-12-14T21:32:38.297Z,-2.80
2022-12-14T21:35:05.399Z,-2.90
2022-12-14T21:37:32.211Z,-2.90
2022-12-14T21:39:58.967Z,-2.90
2022-12-14T21:42:26.437Z,-3.00
2022-12-14T21:44:54.427Z,-3.00
2022-12-14T21:47:25.873Z,-3.00
2022-12-14T21:49:52.940Z,-3.00
2022-12-14T21:52:23.853Z,-3.00
2022-12-14T21:54:50.670Z,-3.00
2022-12-14T21:57:39.453Z,-2.90
2022-12-14T22:00:08.744Z,-2.80
2022-12-14T22:02:35.574Z,-2.80
2022-12-14T22:05:02.536Z,-2.80
2022-12-14T22:07:32.393Z,-2.90
2022-12-14T22:09:59.212Z,-3.00
2022-12-14T22:12:26.144Z,-3.00
2022-12-14T22:14:53.114Z,-2.90
2022-12-14T22:17:19.949Z,-2.90
2022-12-14T22:19:46.831Z,-3.00
2022-12-14T22:22:15.332Z,-3.00
2022-12-14T22:24:42.857Z,-3.00
2022-12-14T22:27:11.394Z,-3.00
2022-12-14T22:29:38.193Z,-2.90
2022-12-14T22:32:05.388Z,-2.80
2022-12-14T22:34:32.283Z,-2.90
2022-12-14T22:36:59.124Z,-3.00
2022-12-14T22:39:25.839Z,-2.90
2022-12-14T22:41:52.731Z,-2.80
2022-12-14T22:44:19.487Z,-2.70
2022-12-14T22:46:46.344Z,-2.70
2022-12-14T22:49:18.346Z,-2.80
2022-12-14T22:51:45.559Z,-2.80
2022-12-14T22:54:24.792Z,-2.70
2022-12-14T22:57:06.230Z,-2.70
2022-12-14T22:59:51.516Z,-2.70
2022-12-14T23:02:18.432Z,-2.50
2022-12-14T23:04:45.416Z,-2.60
2022-12-14T23:07:17.136Z,-2.60
2022-12-14T23:10:02.412Z,-2.60
2022-12-14T23:12:48.109Z,-2.60
2022-12-14T23:15:33.579Z,-2.60
2022-12-14T23:18:23.992Z,-2.60
2022-12-14T23:21:09.879Z,-2.60
2022-12-14T23:24:00.127Z,-2.50
2022-12-14T23:26:45.706Z,-2.40
2022-12-14T23:29:31.315Z,-2.40
2022-12-14T23:32:16.699Z,-2.50
2022-12-14T23:35:02.241Z,-2.40
2022-12-14T23:37:47.951Z,-2.40
2022-12-14T23:40:33.463Z,-2.40
2022-12-14T23:43:27.201Z,-2.30
2022-12-14T23:46:13.022Z,-2.20
2022-12-14T23:48:58.470Z,-2.20
2022-12-14T23:51:44.043Z,-2.20
2022-12-14T23:54:29.645Z,-2.20
2022-12-14T23:57:15.185Z,-2.20
